Terminal Aerodrome Forecast
Issued by NWS Green Bay, WI

Home | Current Version | Previous Version | Graphics & Text | Print | Product List | Glossary On
Versions: 1 2 3 4 5 6 7 8 9 10 11 12 13 14 15 16 17 18 19 20 21 22 23 24 25 26 27 28 29 30 31 32 33 34 35 36 37 38
000
FTUS43 KGRB 271128
TAFGRB
TAF
KGRB 271128Z 2712/2812 34011KT 4SM RA BR SCT005 OVC012
      TEMPO 2712/2715 2SM RA BR BKN005
     FM271500 30012G20KT 6SM -RA BR OVC008
     FM271800 29012G20KT P6SM -RASN OVC009
     FM272000 26013G23KT P6SM OVC014
     FM280100 25009G16KT P6SM BKN023
     FM280600 24006KT P6SM SCT030=

USA.gov is the U.S. government's official web portal to all federal, state and local government web resources and services.